METAR - Ísland

Uppfært síðast 24.01.2019 - kl. 03:09

SIGMET síðustu 6 klst.

BIRD SIGMET A02 VALID 240300/240600 BIRK- BIRD REYKJAVIK CTA SEV TURB FCST WI N6100 W01650 - N6100 W00900 - N6316 W00900 - N6340 W01750 - N6100 W01650 FL360/420 MOV E 15KT WKN
BIRD SIGMET A01 VALID 240000/240300 BIRK- BIRD REYKJAVIK CTA SEV TURB FCST AT 0000Z WI N6250 W02500 - N6340 W02020 - N6320 W01000 - N6100 W01000 - N6100 W02200 - N6250 W02500 FL360/420 MOV E 15KT NC

METAR síðustu 3 klst

Flugv.TímiSkeyti
BIAR2019-01-24 03.00METAR BIAR 240300Z 21003KT 170V230 9999 OVC024 M05/M07 Q1004
BIAR2019-01-24 02.00METAR BIAR 240200Z 14006KT 9999 BKN027 OVC034 M06/M08 Q1005
BIAR2019-01-24 01.00METAR BIAR 240100Z 16005KT 9999 SCT030 OVC034 M06/M07 Q1005
BIEG2019-01-24 03.00METAR BIEG 240300Z 20013KT 9999 SCT022 BKN027 M01/M03 Q1002 R04/750195
BIEG2019-01-24 02.00METAR BIEG 240200Z 20012KT 9999 SCT027 BKN037 M01/M04 Q1003 R04/750195
BIEG2019-01-24 01.00METAR BIEG 240100Z 21012KT 9999 SCT027 BKN043 M00/M04 Q1003 R04/750195
BIKF2019-01-24 03.00METAR BIKF 240300Z 03003KT CAVOK M03/M07 Q1000
BIKF2019-01-24 02.30METAR BIKF 240230Z 09002KT 9999 FEW008 BKN095 OVC130 M02/M06 Q1001
BIKF2019-01-24 02.00METAR BIKF 240200Z 11003KT 9999 FEW008 OVC100 M02/M06 Q1001
BIKF2019-01-24 01.30METAR BIKF 240130Z 08004KT 9999 FEW008 OVC100 M02/M06 Q1001
BIKF2019-01-24 01.00METAR BIKF 240100Z 09004KT 9999 FEW005 OVC095 M02/M06 Q1001
BIKF2019-01-24 00.30METAR BIKF 240030Z 09006KT 9999 FEW005 OVC085 M03/M04 Q1002 R19/720060
BIRK2019-01-24 03.00METAR BIRK 240300Z 00000KT CAVOK M04/M07 Q1001
BIRK2019-01-24 02.00METAR BIRK 240200Z VRB02KT CAVOK M04/M06 Q1001
BIRK2019-01-24 01.00METAR BIRK 240100Z VRB01KT CAVOK M04/M06 Q1002

Textaspár eru skrifaðar af vakthafandi veðurfræðingi á Veðurstofu Íslands.




Aðrir tengdir vefir



Þetta vefsvæði byggir á Eplica